Impros — D5BS7 — position and weather

sailwx.info

Track history (hours):
 
Tides and Currents Weather Stations Pressure Air Temp Water Temp Dewpoint Dewpoint Depression Visibility Wind Speed Wind Dir Waves Ship Positions

Impros

Last reported at 2016-Sep-11 12:27 UTC. Time now 2016-Sep-30 10:03 UTC.
Position N 01°56' E 102°18'.
Warning: this ship's position is 18 days out of date.

Length 244 m; draft 9.4 m.

Type: Tanker. MMSI: 636015595.

Date/timePositionNaut miles runAvg speedWind from/ knotsBaromVisibWave heightAir tempDewpointWater temp
2016-Sep-11 12:27N 01°56' E 102°18'1111.9
2016-Sep-11 11:33N 01°52' E 102°27'1211.7
2016-Sep-11 10:33N 01°47' E 102°38'  
2016-Sep-08 00:30N 01°15' E 103°35'4 3.9
2016-Sep-07 23:21N 01°12' E 103°38'810.7
2016-Sep-07 22:33N 01°09' E 103°46'1111.3
2016-Sep-07 21:34N 01°14' E 103°56'1311.3
2016-Sep-07 20:26N 01°17' E 104°09'  
2016-Sep-02 03:29N 01°15' E 104°04'1111.7
2016-Sep-02 02:33N 01°12' E 103°54'  
Track history (hours):
 
Tides and Currents Weather Stations Pressure Air Temp Water Temp Dewpoint Dewpoint Depression Visibility Wind Speed Wind Dir Waves Ship Positions

Impros

Last reported at 2016-Sep-11 12:27 UTC. Time now 2016-Sep-30 10:03 UTC.
Position N 01°56' E 102°18'.
Warning: this ship's position is 18 days out of date.

Length 244 m; draft 9.4 m.

Type: Tanker. MMSI: 636015595.

Date/timePositionNaut miles runAvg speedWind from/ knotsBaromVisibWave heightAir tempDewpointWater temp
2016-Sep-11 12:27N 01°56' E 102°18'1111.9
2016-Sep-11 11:33N 01°52' E 102°27'1211.7
2016-Sep-11 10:33N 01°47' E 102°38'  
2016-Sep-08 00:30N 01°15' E 103°35'4 3.9
2016-Sep-07 23:21N 01°12' E 103°38'810.7
2016-Sep-07 22:33N 01°09' E 103°46'1111.3
2016-Sep-07 21:34N 01°14' E 103°56'1311.3
2016-Sep-07 20:26N 01°17' E 104°09'  
2016-Sep-02 03:29N 01°15' E 104°04'1111.7
2016-Sep-02 02:33N 01°12' E 103°54'  

Dump ship's entire track history